• Join FlightAware (Why Join?)
  • Login
  • US Flag 
08:49AM EDT


 

Airport Tracker/Info


-or-


 

Live Flight TrackerFlight Track Log ✈ SWA1618 ✈ 06-Jul-2013 ✈ KALB - KMDW

Flight Track Log - Related Links

Times and Time Zones

All times are in EDT time to prevent confusion due to time zone crossing. See the SWA1618 flight status page for this flight to view local times or setup timezone preferences in your user account.

Time Position Orientation Groundspeed Altitude Reporting Facility
EDT Latitude Longitude Course Direction KTS MPH feet Rate Location/Type
07:07AM 42.7694 -73.8089 317° Northwest 153 176 1,500  Level Boston Center
07:09AM 42.8494 -73.9100 317° Northwest 223 257 7,300 2,880 Climbing Boston Center
07:10AM 42.9003 -73.9933 310° West 237 273 10,400 2,760 Climbing Boston Center
07:11AM 42.9514 -74.0825 308° West 296 341 12,900 2,640 Climbing Boston Center
07:12AM 42.9742 -74.2164 283° West 327 376 15,700 2,700 Climbing Boston Center
07:13AM 42.9869 -74.3389 278° West 357 411 18,300 2,520 Climbing Boston Center
07:14AM 42.9989 -74.4811 277° West 370 426 20,800 2,400 Climbing Boston Center
07:15AM 43.0131 -74.6239 278° West 376 433 23,100 2,160 Climbing Boston Center
07:16AM 43.0289 -74.7719 278° West 387 445 25,200 2,100 Climbing Boston Center
07:17AM 43.0425 -74.9175 277° West 392 451 27,400 1,620 Climbing Boston Center
07:18AM 43.0575 -75.0800 277° West 407 468 28,500 1,500 Climbing Boston Center
07:19AM 43.0747 -75.2400 278° West 425 489 30,500 2,100 Climbing Boston Center
07:20AM 43.0872 -75.3997 276° West 430 495 32,800 2,160 Climbing Boston Center
07:21AM 43.1019 -75.5542 277° West 425 489 34,900 1,920 Climbing Boston Center
07:22AM 43.1181 -75.7172 278° West 418 481 36,700 1,500 Climbing Boston Center
07:23AM 43.1294 -75.8344 278° West 407 468 37,900 600 Climbing Boston Center
07:24AM 43.1447 -76.0117 277° West 402 463 38,000  Climbing Boston Center
07:26AM 43.1425 -76.2692 269° West 398 458 38,000  Level Cleveland Center
07:27AM 43.0997 -76.4031 246° West 386 444 38,000  Level Cleveland Center
07:28AM 43.0544 -76.5397 246° West 391 450 38,000  Level Cleveland Center
07:29AM 43.0111 -76.6789 247° West 396 456 38,000  Level Cleveland Center
07:30AM 42.9697 -76.8064 246° West 390 449 38,000  Level Cleveland Center
07:31AM 42.9261 -76.9422 246° West 390 449 38,000  Level Cleveland Center
07:32AM 42.8822 -77.0753 246° West 390 449 38,000  Level Cleveland Center
07:33AM 42.8383 -77.2081 246° West 390 449 38,000  Level Cleveland Center
07:34AM 42.7942 -77.3433 246° West 390 449 38,000  Level Cleveland Center
07:35AM 42.7519 -77.4756 247° West 390 449 38,000  Level Cleveland Center
07:36AM 42.7075 -77.6106 246° West 390 449 38,000  Level Cleveland Center
07:37AM 42.6608 -77.7456 245° Southwest 390 449 38,000  Level Cleveland Center
07:38AM 42.6122 -77.8944 246° West 390 449 38,000  Level Cleveland Center
07:39AM 42.5672 -78.0233 245° Southwest 390 449 38,000  Level Cleveland Center
07:40AM 42.5244 -78.1575 247° West 390 449 38,000  Level Cleveland Center
07:41AM 42.4792 -78.2886 245° Southwest 390 449 38,000  Level Cleveland Center
07:42AM 42.4336 -78.4197 245° Southwest 390 449 38,000  Level Cleveland Center
07:43AM 42.3883 -78.5564 246° West 390 449 38,000  Level Cleveland Center
07:44AM 42.3425 -78.6869 245° Southwest 390 449 38,000  Level Cleveland Center
07:45AM 42.2947 -78.8203 244° Southwest 390 449 38,000  Level Cleveland Center
07:46AM 42.2547 -78.9336 245° Southwest 385 443 38,000  Level Cleveland Center
07:47AM 42.2086 -79.0694 245° Southwest 392 451 38,000  Level Cleveland Center
07:48AM 42.1686 -79.2078 249° West 392 451 38,000  Level Cleveland Center
07:49AM 42.1325 -79.3456 251° West 392 451 38,000  Level Cleveland Center
07:50AM 42.0986 -79.4778 251° West 392 451 38,000  Level Cleveland Center
07:51AM 42.0622 -79.6156 250° West 392 451 38,000  Level Cleveland Center
07:52AM 42.0258 -79.7558 251° West 392 451 38,000  Level Cleveland Center
07:53AM 41.9872 -79.8958 250° West 392 451 38,000  Level Cleveland Center
07:54AM 41.9483 -80.0444 251° West 392 451 38,000  Level Cleveland Center
07:55AM 41.9092 -80.1814 249° West 392 451 38,000  Level Cleveland Center
07:56AM 41.8742 -80.3183 251° West 392 451 38,000  Level Cleveland Center
07:57AM 41.8369 -80.4550 250° West 392 451 38,000  Level Cleveland Center
07:58AM 41.7994 -80.5942 250° West 392 451 38,000  Level Cleveland Center
07:59AM 41.7619 -80.7306 250° West 392 451 38,000  Level Cleveland Center
08:00AM 41.7219 -80.8725 249° West 398 458 38,000  Level Cleveland Center
08:01AM 41.6861 -81.0058 250° West 393 452 38,000  Level Cleveland Center
08:02AM 41.6458 -81.1444 249° West 393 452 38,000  Level Cleveland Center
08:03AM 41.6075 -81.2803 249° West 393 452 38,000  Level Cleveland Center
08:04AM 41.5756 -81.4186 253° West 388 447 38,000  Level Cleveland Center
08:05AM 41.5742 -81.5656 269° West 394 453 38,000  Level Cleveland Center
08:06AM 41.5708 -81.7128 268° West 399 459 38,000  Level Cleveland Center
08:07AM 41.5672 -81.8597 268° West 404 465 38,000  Level Cleveland Center
08:08AM 41.5636 -81.9931 268° West 399 459 38,000  Level Cleveland Center
08:09AM 41.5594 -82.1400 268° West 404 465 38,000  Level Cleveland Center
08:10AM 41.5553 -82.2869 268° West 404 465 38,000  Level Cleveland Center
08:11AM 41.5531 -82.4367 269° West 399 459 38,000  Level Cleveland Center
08:12AM 41.5486 -82.5836 268° West 404 465 38,000  Level Cleveland Center
08:13AM 41.5481 -82.7278 270° West 399 459 38,000  Level Cleveland Center
08:14AM 41.5431 -82.8747 267° West 399 459 38,000  Level Cleveland Center
08:15AM 41.5378 -83.0217 267° West 399 459 38,000  Level Cleveland Center
08:16AM 41.5344 -83.1769 268° West 399 459 38,000  Level Cleveland Center
08:17AM 41.5250 -83.3208 265° West 399 459 38,000  Level Cleveland Center
08:18AM 41.5233 -83.4678 269° West 399 459 38,000  Level Cleveland Center
08:19AM 41.5153 -83.6142 266° West 399 459 38,000 -480 Level Cleveland Center
08:20AM 41.5114 -83.7611 268° West 399 459 37,100 -900 Descending Cleveland Center
08:21AM 41.5072 -83.9078 268° West 404 465 36,200 -600 Descending Cleveland Center
08:22AM 41.5006 -84.0628 267° West 404 465 36,000 -480 Descending Cleveland Center
08:23AM 41.4981 -84.2236 269° West 407 468 35,200 -1,260 Descending Chicago Center
08:24AM 41.4917 -84.3767 267° West 414 476 33,300 -1,860 Descending Chicago Center
08:25AM 41.4847 -84.5333 267° West 423 487 31,400 -1,620 Descending Chicago Center
08:26AM 41.4822 -84.7239 269° West 429 494 30,000 -840 Descending Chicago Center
08:27AM 41.4894 -84.8831 274° West 430 495 29,700 -540 Descending Chicago Center
08:28AM 41.4953 -85.0456 273° West 437 503 29,000 -660 Descending Chicago Center
08:29AM 41.5000 -85.2089 272° West 439 505 28,400 -1,680 Descending Chicago Center
08:30AM 41.5036 -85.3717 272° West 433 498 25,600 -2,220 Descending Chicago Center
08:31AM 41.5100 -85.5314 273° West 417 480 24,000 -1,620 Descending Chicago Center
08:32AM 41.5147 -85.6831 272° West 406 467 22,400 -2,100 Descending Chicago Center
08:33AM 41.5186 -85.8344 272° West 407 468 19,700 -2,460 Descending Chicago Center
08:34AM 41.5236 -85.9842 273° West 404 465 17,400 -2,400 Descending Chicago Center
08:35AM 41.5242 -86.1294 270° West 395 455 14,900 -2,460 Descending Chicago Center
08:36AM 41.5239 -86.2728 270° West 389 448 12,400 -1,860 Descending Chicago Center
08:37AM 41.5228 -86.4056 269° West 360 414 11,100 -1,140 Descending Chicago Center
08:38AM 41.5214 -86.5281 269° West 335 386 10,200 -540 Descending Chicago Center
08:39AM 41.5203 -86.6678 269° West 317 365 10,100 -120 Descending Chicago Center
08:40AM 41.5194 -86.7911 270° West 324 373 10,000 -240 Descending Chicago Center
08:41AM 41.5192 -86.8986 270° West 295 339 9,700 -840 Descending Chicago Center
08:42AM 41.5208 -87.0011 271° West 280 322 8,300 -1,320 Descending Chicago Center
08:43AM 41.5453 -87.1006 288° West 287 330 7,100 -1,080 Descending Chicago Center
08:44AM 41.5700 -87.1972 289° West 278 320 6,200 -840 Descending Chicago Center
08:45AM 41.5936 -87.2958 288° West 279 321 5,500 -840 Descending Chicago Center
08:46AM 41.6217 -87.4119 288° West 278 320 4,500 -780 Descending Chicago Center
08:47AM 41.6442 -87.5028 288° West 269 310 4,000 -300 Descending Chicago Center
08:48AM 41.6742 -87.5817 297° West 254 292 3,900 -480 Descending Chicago Center
08:49AM 41.7200 -87.6344 319° Northwest 238 274 3,100 -660 Descending Chicago Center
08:50AM 41.7739 -87.6464 351° North 214 246 2,600 -660 Descending Chicago Center
08:51AM 41.8086 -87.6844 321° Northwest 180 207 1,800 -840 Descending Chicago Center
08:52AM 41.8044 -87.7286 263° West 144 166 1,000 -780 Descending Chicago Center
08:54AM 41.7833 -87.7500 217° Southwest  Level FlightAware Approximate